createdAt,value
2018-06-24T00:01:51.256Z,15.07
2018-06-24T00:04:19.679Z,14.77
2018-06-24T00:06:48.126Z,15.47
2018-06-24T00:09:16.557Z,15.87
2018-06-24T00:11:45.045Z,17.63
2018-06-24T00:14:13.470Z,16.27
2018-06-24T00:16:41.870Z,16.07
2018-06-24T00:19:10.310Z,18.77
2018-06-24T00:21:38.648Z,16.60
2018-06-24T00:24:07.060Z,16.57
2018-06-24T00:26:35.425Z,18.07
2018-06-24T00:29:03.892Z,16.33
2018-06-24T00:31:32.292Z,17.70
2018-06-24T00:34:00.680Z,17.13
2018-06-24T00:36:29.107Z,17.80
2018-06-24T00:38:57.505Z,17.00
2018-06-24T00:41:26.744Z,15.20
2018-06-24T00:43:55.061Z,15.83
2018-06-24T00:46:23.447Z,17.43
2018-06-24T00:48:51.792Z,15.47
2018-06-24T00:51:20.173Z,15.57
2018-06-24T00:53:48.686Z,15.83
2018-06-24T00:56:17.808Z,15.07
2018-06-24T00:58:46.207Z,17.10
2018-06-24T01:01:14.612Z,16.60
2018-06-24T01:03:43.025Z,15.77
2018-06-24T01:06:11.417Z,16.27
2018-06-24T01:08:39.815Z,15.47
2018-06-24T01:11:08.191Z,14.37
2018-06-24T01:13:36.638Z,16.33
2018-06-24T01:16:05.669Z,15.50
2018-06-24T01:18:34.079Z,15.03
2018-06-24T01:21:02.480Z,14.57
2018-06-24T01:23:30.823Z,15.63
2018-06-24T01:25:59.167Z,16.30
2018-06-24T01:28:27.529Z,15.90
2018-06-24T01:30:55.581Z,16.07
2018-06-24T01:33:23.944Z,16.20
2018-06-24T01:35:52.317Z,15.80
2018-06-24T01:38:20.724Z,16.57
2018-06-24T01:40:49.116Z,16.40
2018-06-24T01:43:17.465Z,16.30
2018-06-24T01:45:45.909Z,15.60
2018-06-24T01:48:14.400Z,16.40
2018-06-24T01:50:42.734Z,17.50
2018-06-24T01:53:11.108Z,15.50
2018-06-24T01:55:39.472Z,16.70
2018-06-24T01:58:07.809Z,16.80
2018-06-24T02:00:36.135Z,16.93
2018-06-24T02:03:04.466Z,16.57
2018-06-24T02:05:33.117Z,16.23
2018-06-24T02:08:01.479Z,17.57
2018-06-24T02:10:29.818Z,16.63
2018-06-24T02:12:58.472Z,16.10
2018-06-24T02:15:26.844Z,16.67
2018-06-24T02:17:55.170Z,16.73
2018-06-24T02:20:23.540Z,17.43
2018-06-24T02:22:53.411Z,17.33
2018-06-24T02:25:21.835Z,17.23
2018-06-24T02:27:50.166Z,16.93
2018-06-24T02:30:18.460Z,17.50
2018-06-24T02:32:47.527Z,17.53
2018-06-24T02:35:16.561Z,18.27
2018-06-24T02:37:45.811Z,17.90
2018-06-24T02:40:14.799Z,18.53
2018-06-24T02:42:43.832Z,17.20
2018-06-24T02:45:12.178Z,20.47
2018-06-24T02:47:40.501Z,18.77
2018-06-24T02:50:08.859Z,20.43
2018-06-24T02:52:36.935Z,19.53
2018-06-24T02:55:05.272Z,17.87
2018-06-24T02:57:33.919Z,18.93
2018-06-24T03:00:02.311Z,20.77
2018-06-24T03:02:30.632Z,19.30
2018-06-24T03:04:59.132Z,21.47
2018-06-24T03:07:27.493Z,20.23
2018-06-24T03:09:55.906Z,18.97
2018-06-24T03:12:24.249Z,19.70
2018-06-24T03:14:52.574Z,21.00
2018-06-24T03:17:20.894Z,18.70
2018-06-24T03:19:49.247Z,20.20
2018-06-24T03:22:18.188Z,21.87
2018-06-24T03:24:46.557Z,18.73
2018-06-24T03:27:14.897Z,19.47
2018-06-24T03:29:43.256Z,20.00
2018-06-24T03:32:11.601Z,19.60
2018-06-24T03:34:43.549Z,20.23
2018-06-24T03:37:11.909Z,20.73
2018-06-24T03:39:40.248Z,21.40
2018-06-24T03:42:08.608Z,20.03
2018-06-24T03:44:36.979Z,19.53
2018-06-24T03:47:05.313Z,21.10
2018-06-24T03:49:33.664Z,20.07
2018-06-24T03:52:01.999Z,19.87
2018-06-24T03:54:30.349Z,20.90
2018-06-24T03:56:58.688Z,20.27
2018-06-24T03:59:27.332Z,20.30
2018-06-24T04:01:55.656Z,19.77
2018-06-24T04:04:23.965Z,19.43
2018-06-24T04:06:52.309Z,22.07
2018-06-24T04:09:20.669Z,20.97
2018-06-24T04:11:49.508Z,22.00
2018-06-24T04:14:17.830Z,23.00
2018-06-24T04:16:46.256Z,20.77
2018-06-24T04:19:14.652Z,20.83
2018-06-24T04:21:42.990Z,21.13
2018-06-24T04:24:11.374Z,19.37
2018-06-24T04:26:39.700Z,19.73
2018-06-24T04:29:08.037Z,19.83
2018-06-24T04:31:36.360Z,19.13
2018-06-24T04:34:04.705Z,19.97
2018-06-24T04:36:33.060Z,19.07
2018-06-24T04:39:01.407Z,18.73
2018-06-24T04:41:29.481Z,19.67
2018-06-24T04:43:57.829Z,19.13
2018-06-24T04:46:26.171Z,18.57
2018-06-24T04:48:54.521Z,18.40
2018-06-24T04:51:22.684Z,18.53
2018-06-24T04:53:51.018Z,18.83
2018-06-24T04:56:19.360Z,18.50
2018-06-24T04:58:49.203Z,17.93
2018-06-24T05:01:17.571Z,18.37
2018-06-24T05:03:45.950Z,16.63
2018-06-24T05:06:14.320Z,17.13
2018-06-24T05:08:42.719Z,17.07
2018-06-24T05:11:10.780Z,17.60
2018-06-24T05:13:39.632Z,16.77
2018-06-24T05:16:08.018Z,17.20
2018-06-24T05:18:36.549Z,16.27
2018-06-24T05:21:04.928Z,17.60
2018-06-24T05:23:32.955Z,16.93
2018-06-24T05:26:01.305Z,16.30
2018-06-24T05:28:29.671Z,16.07
2018-06-24T05:30:58.056Z,16.60
2018-06-24T05:33:26.426Z,16.80
2018-06-24T05:35:54.816Z,13.73
2018-06-24T05:38:23.151Z,13.83
2018-06-24T05:40:51.463Z,14.37
2018-06-24T05:43:19.849Z,13.50
2018-06-24T05:45:48.170Z,14.27
2018-06-24T05:48:16.484Z,13.57
2018-06-24T05:50:44.819Z,12.80
2018-06-24T05:53:13.181Z,13.30
2018-06-24T05:55:41.620Z,12.10
2018-06-24T05:58:09.944Z,11.90
2018-06-24T06:00:38.334Z,12.33
2018-06-24T06:03:06.674Z,12.77
2018-06-24T06:05:35.070Z,11.93
2018-06-24T06:08:03.474Z,10.90
2018-06-24T06:10:31.841Z,10.23
2018-06-24T06:13:00.238Z,11.03
2018-06-24T06:15:28.540Z,11.27
2018-06-24T06:17:56.677Z,10.23
2018-06-24T06:20:25.053Z,9.73
2018-06-24T06:22:53.414Z,9.57
2018-06-24T06:25:22.707Z,9.27
2018-06-24T06:27:51.089Z,7.90
2018-06-24T06:30:19.467Z,8.20
2018-06-24T06:32:47.738Z,7.57
2018-06-24T06:35:16.112Z,6.73
2018-06-24T06:37:44.460Z,5.60
2018-06-24T06:40:12.820Z,5.50
2018-06-24T06:42:41.202Z,5.40
2018-06-24T06:45:09.634Z,5.80
2018-06-24T06:47:37.892Z,5.07
2018-06-24T06:50:06.543Z,4.93
2018-06-24T06:52:34.906Z,4.63
2018-06-24T06:55:03.251Z,4.93
2018-06-24T06:57:31.687Z,4.20
2018-06-24T07:00:00.046Z,4.80
2018-06-24T07:02:28.421Z,4.50
2018-06-24T07:04:56.916Z,4.07
2018-06-24T07:07:24.964Z,3.97
2018-06-24T07:09:53.373Z,4.70
2018-06-24T07:12:21.724Z,4.40
2018-06-24T07:14:50.053Z,4.13
2018-06-24T07:17:18.376Z,3.60
2018-06-24T07:19:46.771Z,4.10
2018-06-24T07:22:15.082Z,3.60
2018-06-24T07:24:43.408Z,3.23
2018-06-24T07:27:11.710Z,3.47
2018-06-24T07:29:40.026Z,3.10
2018-06-24T07:32:08.351Z,2.70
2018-06-24T07:34:36.713Z,3.23
2018-06-24T07:37:05.157Z,2.83
2018-06-24T07:39:33.528Z,2.60
2018-06-24T07:42:01.560Z,2.80
2018-06-24T07:44:29.929Z,2.60
2018-06-24T07:46:58.265Z,2.60
2018-06-24T07:49:26.693Z,2.97
2018-06-24T07:51:55.141Z,2.97
2018-06-24T07:54:23.504Z,3.00
2018-06-24T07:56:52.536Z,3.17
2018-06-24T07:59:20.884Z,3.20
2018-06-24T08:01:49.272Z,2.93
2018-06-24T08:04:17.723Z,2.57
2018-06-24T08:06:46.100Z,2.40
2018-06-24T08:09:15.371Z,2.77
2018-06-24T08:11:43.713Z,2.40
2018-06-24T08:14:12.079Z,2.37
2018-06-24T08:16:40.410Z,2.83
2018-06-24T08:19:08.821Z,2.33
2018-06-24T08:21:37.425Z,2.93
2018-06-24T08:24:05.823Z,2.30
2018-06-24T08:26:34.263Z,2.60
2018-06-24T08:29:02.344Z,3.27
2018-06-24T08:31:31.125Z,2.90
2018-06-24T08:33:59.837Z,2.27
2018-06-24T08:36:28.241Z,2.57
2018-06-24T08:38:56.726Z,2.13
2018-06-24T08:41:25.093Z,2.67
2018-06-24T08:43:53.456Z,2.73
2018-06-24T08:46:21.931Z,2.63
2018-06-24T08:48:50.569Z,2.33
2018-06-24T08:51:19.427Z,2.17
2018-06-24T08:53:47.850Z,2.40
2018-06-24T08:56:16.250Z,2.33
2018-06-24T08:58:44.828Z,2.80
2018-06-24T09:01:14.122Z,2.30
2018-06-24T09:03:42.536Z,2.70
2018-06-24T09:06:11.039Z,2.27
2018-06-24T09:08:39.978Z,2.37
2018-06-24T09:11:08.434Z,2.40
2018-06-24T09:13:36.839Z,2.23
2018-06-24T09:16:05.541Z,1.80
2018-06-24T09:18:33.931Z,2.30
2018-06-24T09:21:02.367Z,1.97
2018-06-24T09:23:30.771Z,2.10
2018-06-24T09:25:59.280Z,2.00
2018-06-24T09:28:28.222Z,1.77
2018-06-24T09:30:56.906Z,1.93
2018-06-24T09:33:25.298Z,1.70
2018-06-24T09:35:53.862Z,1.70
2018-06-24T09:38:22.341Z,1.70
2018-06-24T09:40:50.772Z,1.73
2018-06-24T09:43:19.200Z,1.87
2018-06-24T09:45:47.674Z,1.50
2018-06-24T09:48:16.237Z,1.97
2018-06-24T09:50:44.996Z,1.70
2018-06-24T09:53:13.516Z,1.60
2018-06-24T09:55:41.601Z,1.63
2018-06-24T09:58:10.041Z,1.53
2018-06-24T10:00:38.528Z,1.87
2018-06-24T10:03:06.972Z,1.40
2018-06-24T10:05:35.573Z,1.63
2018-06-24T10:08:03.992Z,1.70
2018-06-24T10:10:32.548Z,1.67
2018-06-24T10:13:01.165Z,1.60
2018-06-24T10:15:29.843Z,1.50
2018-06-24T10:17:58.245Z,1.43
2018-06-24T10:20:26.670Z,1.57
2018-06-24T10:22:55.031Z,1.40
2018-06-24T10:25:23.699Z,1.70
2018-06-24T10:27:52.404Z,1.73
2018-06-24T10:30:20.861Z,1.87
2018-06-24T10:32:49.271Z,1.70
2018-06-24T10:35:17.654Z,1.80
2018-06-24T10:37:46.076Z,1.90
2018-06-24T10:40:14.481Z,1.80
2018-06-24T10:42:43.155Z,1.60
2018-06-24T10:45:11.539Z,1.70
2018-06-24T10:47:39.887Z,1.80
2018-06-24T10:50:08.314Z,2.20
2018-06-24T10:52:37.280Z,1.63
2018-06-24T10:55:05.865Z,1.83
2018-06-24T10:57:34.266Z,1.73
2018-06-24T11:00:02.654Z,1.60
2018-06-24T11:02:31.308Z,2.17
2018-06-24T11:04:59.388Z,2.40
2018-06-24T11:07:28.390Z,1.97
2018-06-24T11:09:56.775Z,1.90
2018-06-24T11:12:25.517Z,2.07
2018-06-24T11:14:55.906Z,1.87
2018-06-24T11:17:24.725Z,2.07
2018-06-24T11:19:53.117Z,1.87
2018-06-24T11:22:21.494Z,1.80
2018-06-24T11:24:50.024Z,2.13
2018-06-24T11:27:18.753Z,1.63
2018-06-24T11:29:47.234Z,1.70
2018-06-24T11:32:15.896Z,1.60
2018-06-24T11:34:44.313Z,2.40
2018-06-24T11:37:12.694Z,2.50
2018-06-24T11:39:41.116Z,1.97
2018-06-24T11:42:09.496Z,2.00
2018-06-24T11:44:37.906Z,1.93
2018-06-24T11:47:06.291Z,1.73
2018-06-24T11:49:34.699Z,1.90
2018-06-24T11:52:03.068Z,2.40
2018-06-24T11:54:31.388Z,1.90
2018-06-24T11:56:59.778Z,1.83
2018-06-24T11:59:28.261Z,2.10
2018-06-24T12:01:56.934Z,2.70
2018-06-24T12:04:25.440Z,2.70
2018-06-24T12:06:53.894Z,2.03
2018-06-24T12:09:22.280Z,1.97
2018-06-24T12:11:50.703Z,2.37
2018-06-24T12:14:19.065Z,2.07
2018-06-24T12:16:47.774Z,2.13
2018-06-24T12:19:16.265Z,2.63
2018-06-24T12:21:44.623Z,2.53
2018-06-24T12:24:12.776Z,2.40
2018-06-24T12:26:41.238Z,2.37
2018-06-24T12:29:09.844Z,2.40
2018-06-24T12:31:38.307Z,2.60
2018-06-24T12:34:06.945Z,2.83
2018-06-24T12:36:39.935Z,2.30
2018-06-24T12:39:10.810Z,3.20
2018-06-24T12:41:39.234Z,3.07
2018-06-24T12:44:08.896Z,3.40
2018-06-24T12:46:37.356Z,3.20
2018-06-24T12:49:06.315Z,3.63
2018-06-24T12:51:35.225Z,3.40
2018-06-24T12:54:03.717Z,3.43
2018-06-24T12:56:32.441Z,3.43
2018-06-24T12:59:01.003Z,2.80
2018-06-24T13:01:30.354Z,2.73
2018-06-24T13:03:58.773Z,3.30
2018-06-24T13:06:27.255Z,3.20
2018-06-24T13:08:56.007Z,3.10
2018-06-24T13:11:24.890Z,6.07
2018-06-24T13:13:53.994Z,3.80
2018-06-24T13:16:22.470Z,3.00
2018-06-24T13:18:50.888Z,3.00
2018-06-24T13:21:19.299Z,3.07
2018-06-24T13:23:47.742Z,3.00
2018-06-24T13:26:16.463Z,3.03
2018-06-24T13:28:45.109Z,2.80
2018-06-24T13:31:13.532Z,2.63
2018-06-24T13:33:42.142Z,2.60
2018-06-24T13:36:10.564Z,3.00
2018-06-24T13:38:39.029Z,3.17
2018-06-24T13:41:08.169Z,2.87
2018-06-24T13:43:36.623Z,2.50
2018-06-24T13:46:05.126Z,2.77
2018-06-24T13:48:33.473Z,2.60
2018-06-24T13:51:01.841Z,2.03
2018-06-24T13:53:30.196Z,2.70
2018-06-24T13:55:58.693Z,2.10
2018-06-24T13:58:27.123Z,2.13
2018-06-24T14:00:55.557Z,2.70
2018-06-24T14:03:23.987Z,2.53
2018-06-24T14:05:52.411Z,3.03
2018-06-24T14:08:20.851Z,3.30
2018-06-24T14:10:49.214Z,3.27
2018-06-24T14:13:17.640Z,3.80
2018-06-24T14:15:46.030Z,3.60
2018-06-24T14:18:14.400Z,3.70
2018-06-24T14:20:42.772Z,3.50
2018-06-24T14:23:11.516Z,3.83
2018-06-24T14:25:39.958Z,3.73
2018-06-24T14:28:08.349Z,3.27
2018-06-24T14:30:37.084Z,3.43
2018-06-24T14:33:05.513Z,3.83
2018-06-24T14:35:33.954Z,4.17
2018-06-24T14:38:02.674Z,3.50
2018-06-24T14:40:31.152Z,3.57
2018-06-24T14:42:59.829Z,3.97
2018-06-24T14:45:28.420Z,3.30
2018-06-24T14:47:56.817Z,3.70
2018-06-24T14:50:25.337Z,3.60
2018-06-24T14:52:53.729Z,3.43
2018-06-24T14:55:22.258Z,4.50
2018-06-24T14:57:50.648Z,4.50
2018-06-24T15:00:19.063Z,5.17
2018-06-24T15:02:47.512Z,4.40
2018-06-24T15:05:15.942Z,5.37
2018-06-24T15:07:44.333Z,5.30
2018-06-24T15:10:12.418Z,4.93
2018-06-24T15:12:40.962Z,3.90
2018-06-24T15:15:10.644Z,4.70
2018-06-24T15:17:39.363Z,4.90
2018-06-24T15:20:07.910Z,5.57
2018-06-24T15:22:36.382Z,4.43
2018-06-24T15:25:04.976Z,5.00
2018-06-24T15:27:33.495Z,4.70
2018-06-24T15:30:01.966Z,4.40
2018-06-24T15:32:30.368Z,4.20
2018-06-24T15:34:58.802Z,4.60
2018-06-24T15:37:27.211Z,3.70
2018-06-24T15:39:55.901Z,3.50
2018-06-24T15:42:24.611Z,4.10
2018-06-24T15:44:53.233Z,3.50
2018-06-24T15:47:21.644Z,3.80
2018-06-24T15:49:50.025Z,3.50
2018-06-24T15:52:18.119Z,3.70
2018-06-24T15:54:46.522Z,3.67
2018-06-24T15:57:14.902Z,3.37
2018-06-24T15:59:43.405Z,3.17
2018-06-24T16:02:11.764Z,2.60
2018-06-24T16:04:40.128Z,2.70
2018-06-24T16:07:08.573Z,3.33
2018-06-24T16:09:37.063Z,3.23
2018-06-24T16:18:51.740Z,3.30
2018-06-24T16:21:20.436Z,4.00
2018-06-24T16:23:48.652Z,3.60
2018-06-24T16:26:17.220Z,3.77
2018-06-24T16:28:45.678Z,3.80
2018-06-24T16:31:14.677Z,3.73
2018-06-24T16:33:42.809Z,3.40
2018-06-24T16:36:13.459Z,3.10
2018-06-24T16:38:41.829Z,3.20
2018-06-24T16:41:10.203Z,7.77
2018-06-24T16:43:38.670Z,4.53
2018-06-24T16:46:07.052Z,5.40
2018-06-24T16:48:35.461Z,3.30
2018-06-24T16:51:03.788Z,3.50
2018-06-24T17:00:18.646Z,3.00
2018-06-24T17:02:46.962Z,3.10
2018-06-24T17:05:15.286Z,3.43
2018-06-24T17:07:43.848Z,3.50
2018-06-24T17:10:12.229Z,3.30
2018-06-24T17:12:40.571Z,3.50
2018-06-24T17:15:08.893Z,3.30
2018-06-24T17:17:37.243Z,3.07
2018-06-24T17:20:05.666Z,3.17
2018-06-24T17:22:34.020Z,3.50
2018-06-24T17:25:02.361Z,3.53
2018-06-24T17:27:30.723Z,3.40
2018-06-24T17:29:59.134Z,3.40
2018-06-24T17:32:27.501Z,3.63
2018-06-24T17:34:55.845Z,3.00
2018-06-24T17:37:24.331Z,3.17
2018-06-24T17:39:52.660Z,2.83
2018-06-24T17:42:21.039Z,3.30
2018-06-24T17:44:49.420Z,2.67
2018-06-24T17:47:17.448Z,2.87
2018-06-24T17:49:45.831Z,2.67
2018-06-24T17:52:14.221Z,3.20
2018-06-24T17:54:42.578Z,2.77
2018-06-24T17:57:10.945Z,2.63
2018-06-24T17:59:39.602Z,2.90
2018-06-24T18:02:08.054Z,3.10
2018-06-24T18:04:36.454Z,2.83
2018-06-24T18:07:04.906Z,2.60
2018-06-24T18:09:33.320Z,2.60
2018-06-24T18:12:01.664Z,3.00
2018-06-24T18:14:30.007Z,2.90
2018-06-24T18:16:58.456Z,2.80
2018-06-24T18:19:26.866Z,2.70
2018-06-24T18:21:55.419Z,2.50
2018-06-24T18:24:23.802Z,3.30
2018-06-24T18:26:52.225Z,2.70
2018-06-24T18:29:20.651Z,2.60
2018-06-24T18:31:49.002Z,2.80
2018-06-24T18:34:17.084Z,2.47
2018-06-24T18:36:45.572Z,3.20
2018-06-24T18:39:14.010Z,2.87
2018-06-24T18:41:42.384Z,2.50
2018-06-24T18:44:10.722Z,2.77
2018-06-24T18:46:39.114Z,3.10
2018-06-24T18:49:07.509Z,2.50
2018-06-24T18:51:36.154Z,2.83
2018-06-24T18:54:04.594Z,2.73
2018-06-24T18:56:33.046Z,3.17
2018-06-24T18:59:01.731Z,3.13
2018-06-24T19:01:31.075Z,2.80
2018-06-24T19:03:59.425Z,2.90
2018-06-24T19:06:28.001Z,3.00
2018-06-24T19:08:56.552Z,3.30
2018-06-24T19:11:24.968Z,3.47
2018-06-24T19:13:53.385Z,3.23
2018-06-24T19:16:21.784Z,2.90
2018-06-24T19:18:50.281Z,3.40
2018-06-24T19:21:18.629Z,3.83
2018-06-24T19:23:46.989Z,3.00
2018-06-24T19:26:15.076Z,3.13
2018-06-24T19:28:43.511Z,3.30
2018-06-24T19:31:11.890Z,3.00
2018-06-24T19:33:40.265Z,2.90
2018-06-24T19:36:08.686Z,3.60
2018-06-24T19:38:37.057Z,3.10
2018-06-24T19:41:05.464Z,3.70
2018-06-24T19:43:33.648Z,3.10
2018-06-24T19:46:02.396Z,3.30
2018-06-24T19:48:31.241Z,3.50
2018-06-24T19:51:00.294Z,3.30
2018-06-24T19:53:28.756Z,3.07
2018-06-24T19:55:57.531Z,3.60
2018-06-24T19:58:25.948Z,4.30
2018-06-24T20:00:54.498Z,3.43
2018-06-24T20:03:22.950Z,3.53
2018-06-24T20:05:51.104Z,3.00
2018-06-24T20:08:19.448Z,3.27
2018-06-24T20:10:47.895Z,3.47
2018-06-24T20:13:16.350Z,3.00
2018-06-24T20:15:44.745Z,3.27
2018-06-24T20:18:13.504Z,3.07
2018-06-24T20:20:41.951Z,2.63
2018-06-24T20:23:10.743Z,2.77
2018-06-24T20:25:39.150Z,2.47
2018-06-24T20:28:07.566Z,2.60
2018-06-24T20:30:36.017Z,2.77
2018-06-24T20:33:05.418Z,2.77
2018-06-24T20:35:33.933Z,3.30
2018-06-24T20:38:02.465Z,2.90
2018-06-24T20:40:30.838Z,2.23
2018-06-24T20:42:58.933Z,2.83
2018-06-24T20:45:27.056Z,2.50
2018-06-24T20:47:55.461Z,2.90
2018-06-24T20:50:23.919Z,3.17
2018-06-24T20:52:52.338Z,3.03
2018-06-24T20:55:21.024Z,3.00
2018-06-24T20:57:49.550Z,3.17
2018-06-24T21:00:17.965Z,3.50
2018-06-24T21:02:46.687Z,3.17
2018-06-24T21:05:15.343Z,3.43
2018-06-24T21:07:43.688Z,3.73
2018-06-24T21:10:12.194Z,3.50
2018-06-24T21:12:40.542Z,3.33
2018-06-24T21:15:08.965Z,3.43
2018-06-24T21:17:37.358Z,4.00
2018-06-24T21:20:05.805Z,3.50
2018-06-24T21:22:34.201Z,3.20
2018-06-24T21:25:02.643Z,3.57
2018-06-24T21:27:31.131Z,3.90
2018-06-24T21:29:59.938Z,3.10
2018-06-24T21:32:28.016Z,3.23
2018-06-24T21:34:56.816Z,4.00
2018-06-24T21:37:25.543Z,3.40
2018-06-24T21:39:54.296Z,4.17
2018-06-24T21:42:22.957Z,4.37
2018-06-24T21:44:51.104Z,4.23
2018-06-24T21:47:19.783Z,4.60
2018-06-24T21:49:48.206Z,4.70
2018-06-24T21:52:16.584Z,4.20
2018-06-24T21:54:45.299Z,4.90
2018-06-24T21:57:13.652Z,5.03
2018-06-24T21:59:42.369Z,5.23
2018-06-24T22:02:10.787Z,5.80
2018-06-24T22:04:39.184Z,5.77
2018-06-24T22:07:07.581Z,5.40
2018-06-24T22:09:35.977Z,5.97
2018-06-24T22:12:04.372Z,5.93
2018-06-24T22:14:32.980Z,5.73
2018-06-24T22:17:01.420Z,6.23
2018-06-24T22:19:29.813Z,5.57
2018-06-24T22:21:58.234Z,5.97
2018-06-24T22:24:26.601Z,5.93
2018-06-24T22:26:55.067Z,5.77
2018-06-24T22:29:23.432Z,6.67
2018-06-24T22:31:51.820Z,6.93
2018-06-24T22:34:21.364Z,6.80
2018-06-24T22:36:49.856Z,7.20
2018-06-24T22:39:18.264Z,7.83
2018-06-24T22:41:46.681Z,8.13
2018-06-24T22:44:15.127Z,8.43
2018-06-24T22:46:43.528Z,7.90
2018-06-24T22:49:12.054Z,9.13
2018-06-24T22:51:40.420Z,8.47
2018-06-24T22:54:08.842Z,7.83
2018-06-24T22:56:37.361Z,8.47
2018-06-24T22:59:17.061Z,8.43
2018-06-24T23:01:45.545Z,7.93
2018-06-24T23:04:13.935Z,8.40
2018-06-24T23:06:42.352Z,8.30
2018-06-24T23:09:10.804Z,8.23
2018-06-24T23:11:39.332Z,8.07
2018-06-24T23:14:07.738Z,8.17
2018-06-24T23:16:36.416Z,8.47
2018-06-24T23:19:04.891Z,8.77
2018-06-24T23:21:33.288Z,8.43
2018-06-24T23:24:01.665Z,9.00
2018-06-24T23:26:30.053Z,8.83
2018-06-24T23:28:58.679Z,8.67
2018-06-24T23:31:27.026Z,9.17
2018-06-24T23:33:55.413Z,9.20
2018-06-24T23:36:23.785Z,8.20
2018-06-24T23:38:52.174Z,8.70
2018-06-24T23:41:20.630Z,9.23
2018-06-24T23:43:49.058Z,9.37
2018-06-24T23:46:17.472Z,8.90
2018-06-24T23:48:45.589Z,8.43
2018-06-24T23:51:13.977Z,8.80
2018-06-24T23:53:42.421Z,9.13
2018-06-24T23:56:11.225Z,9.20
2018-06-24T23:58:39.608Z,9.53
